createdAt,value
2023-05-12T00:01:17.610Z,14.44
2023-05-12T00:05:19.116Z,14.36
2023-05-12T00:09:20.690Z,14.30
2023-05-12T00:13:23.919Z,14.34
2023-05-12T00:17:27.777Z,14.31
2023-05-12T00:21:29.382Z,14.30
2023-05-12T00:25:31.027Z,14.34
2023-05-12T00:29:33.697Z,14.29
2023-05-12T00:33:35.226Z,14.31
2023-05-12T00:37:36.937Z,14.26
2023-05-12T00:41:38.789Z,14.30
2023-05-12T00:45:40.571Z,14.29
2023-05-12T00:49:42.700Z,14.21
2023-05-12T00:53:49.742Z,14.20
2023-05-12T00:57:51.890Z,14.11
2023-05-12T01:01:53.608Z,14.09
2023-05-12T01:06:43.812Z,14.06
2023-05-12T01:10:46.942Z,14.05
2023-05-12T01:14:53.028Z,14.08
2023-05-12T01:18:56.264Z,13.99
2023-05-12T01:22:58.680Z,14.02
2023-05-12T01:27:03.624Z,14.02
2023-05-12T01:31:07.730Z,14.02
2023-05-12T01:35:11.034Z,14.02
2023-05-12T01:39:16.807Z,14.01
2023-05-12T01:43:20.868Z,14.02
2023-05-12T01:47:23.816Z,14.05
2023-05-12T01:51:38.471Z,14.01
2023-05-12T01:55:40.411Z,14.06
2023-05-12T01:59:42.066Z,14.04
2023-05-12T02:03:44.175Z,14.05
2023-05-12T02:07:48.707Z,14.09
2023-05-12T02:11:50.502Z,14.09
2023-05-12T02:15:52.191Z,14.06
2023-05-12T02:19:54.687Z,14.01
2023-05-12T02:23:57.083Z,14.08
2023-05-12T02:27:58.849Z,14.05
2023-05-12T02:32:00.557Z,14.08
2023-05-12T02:36:02.964Z,14.09
2023-05-12T02:40:05.109Z,14.08
2023-05-12T02:44:06.758Z,14.01
2023-05-12T02:48:08.673Z,13.98
2023-05-12T02:52:10.325Z,13.99
2023-05-12T02:56:12.041Z,13.98
2023-05-12T03:00:14.098Z,13.99
2023-05-12T03:04:16.614Z,13.94
2023-05-12T03:08:18.310Z,13.99
2023-05-12T03:12:19.851Z,14.01
2023-05-12T03:16:21.576Z,13.98
2023-05-12T03:20:23.758Z,13.96
2023-05-12T03:24:25.348Z,13.94
2023-05-12T03:28:26.988Z,13.90
2023-05-12T03:32:28.663Z,13.93
2023-05-12T03:36:30.471Z,13.93
2023-05-12T03:40:32.074Z,13.90
2023-05-12T03:44:33.635Z,13.86
2023-05-12T03:48:35.224Z,13.86
2023-05-12T03:52:38.678Z,13.86
2023-05-12T03:56:40.318Z,13.86
2023-05-12T04:00:44.194Z,13.88
2023-05-12T04:04:45.990Z,13.88
2023-05-12T04:08:47.577Z,13.90
2023-05-12T04:12:49.149Z,13.87
2023-05-12T04:16:51.380Z,13.90
2023-05-12T04:20:54.152Z,13.93
2023-05-12T04:24:55.706Z,13.94
2023-05-12T04:28:58.001Z,13.98
2023-05-12T04:33:00.120Z,14.01
2023-05-12T04:37:02.211Z,13.99
2023-05-12T04:41:04.825Z,13.98
2023-05-12T04:45:07.322Z,13.99
2023-05-12T04:49:09.080Z,14.02
2023-05-12T04:53:11.448Z,14.05
2023-05-12T04:57:13.590Z,14.06
2023-05-12T05:01:15.419Z,14.06
2023-05-12T05:05:17.285Z,14.11
2023-05-12T05:09:19.813Z,14.13
2023-05-12T05:13:21.552Z,14.19
2023-05-12T05:17:23.716Z,14.13
2023-05-12T05:21:25.525Z,14.30
2023-05-12T05:25:27.921Z,14.34
2023-05-12T05:29:31.025Z,14.36
2023-05-12T05:33:32.820Z,14.46
2023-05-12T05:37:34.881Z,14.59
2023-05-12T05:41:36.551Z,14.69
2023-05-12T05:45:39.102Z,14.78
2023-05-12T05:49:40.817Z,14.79
2023-05-12T05:53:42.478Z,14.82
2023-05-12T05:57:45.280Z,14.85
2023-05-12T06:01:47.521Z,14.91
2023-05-12T06:05:49.662Z,14.94
2023-05-12T06:09:54.159Z,14.97
2023-05-12T06:13:55.880Z,15.05
2023-05-12T06:17:57.558Z,15.04
2023-05-12T06:21:59.196Z,15.04
2023-05-12T06:26:00.937Z,15.16
2023-05-12T06:30:02.828Z,15.23
2023-05-12T06:34:04.486Z,15.33
2023-05-12T06:38:06.301Z,15.37
2023-05-12T06:42:07.989Z,15.38
2023-05-12T06:46:15.784Z,15.41
2023-05-12T06:50:17.704Z,15.38
2023-05-12T06:54:19.439Z,15.43
2023-05-12T06:58:22.037Z,15.51
2023-05-12T07:02:23.781Z,15.59
2023-05-12T07:06:29.044Z,15.71
2023-05-12T07:10:30.852Z,15.78
2023-05-12T07:14:32.510Z,15.80
2023-05-12T07:18:34.115Z,15.80
2023-05-12T07:22:38.679Z,15.70
2023-05-12T07:26:40.960Z,15.68
2023-05-12T07:30:42.568Z,15.62
2023-05-12T07:34:44.315Z,15.64
2023-05-12T07:38:46.019Z,15.62
2023-05-12T07:42:47.670Z,15.58
2023-05-12T07:46:49.324Z,15.60
2023-05-12T07:50:50.832Z,15.60
2023-05-12T07:54:52.458Z,15.52
2023-05-12T07:58:54.063Z,15.44
2023-05-12T08:02:55.969Z,15.46
2023-05-12T08:06:57.676Z,15.51
2023-05-12T08:10:59.532Z,15.55
2023-05-12T08:15:01.143Z,15.60
2023-05-12T08:19:02.764Z,15.73
2023-05-12T08:23:04.446Z,15.86
2023-05-12T08:27:05.992Z,15.76
2023-05-12T08:31:07.650Z,15.80
2023-05-12T08:35:09.506Z,16.17
2023-05-12T08:39:11.589Z,16.60
2023-05-12T08:43:27.123Z,16.95
2023-05-12T08:47:28.961Z,17.12
2023-05-12T08:51:32.969Z,17.35
2023-05-12T08:55:35.195Z,17.36
2023-05-12T08:59:39.236Z,17.38
2023-05-12T09:03:41.038Z,17.24
2023-05-12T09:07:44.705Z,17.05
2023-05-12T09:11:49.899Z,16.95
2023-05-12T09:15:53.873Z,16.99
2023-05-12T09:19:55.719Z,17.24
2023-05-12T09:24:00.172Z,17.58
2023-05-12T09:28:02.161Z,17.91
2023-05-12T09:32:04.486Z,17.98
2023-05-12T09:36:07.479Z,18.07
2023-05-12T09:40:11.414Z,17.83
2023-05-12T09:44:16.957Z,17.65
2023-05-12T09:48:18.528Z,17.32
2023-05-12T09:52:22.513Z,17.09
2023-05-12T09:56:27.783Z,16.95
2023-05-12T10:00:43.543Z,16.82
2023-05-12T10:04:58.111Z,16.66
2023-05-12T10:09:19.533Z,16.63
2023-05-12T10:13:22.407Z,16.67
2023-05-12T10:17:26.556Z,16.72
2023-05-12T10:21:28.401Z,16.70
2023-05-12T10:25:30.965Z,16.70
2023-05-12T10:29:33.766Z,16.63
2023-05-12T10:33:35.406Z,16.75
2023-05-12T10:37:39.985Z,17.20
2023-05-12T10:41:42.614Z,17.46
2023-05-12T10:45:44.169Z,17.62
2023-05-12T10:49:46.277Z,17.71
2023-05-12T10:53:54.572Z,17.87
2023-05-12T10:58:04.787Z,18.14
2023-05-12T11:02:16.852Z,18.29
2023-05-12T11:06:19.684Z,18.57
2023-05-12T11:10:22.097Z,18.62
2023-05-12T11:14:24.171Z,18.51
2023-05-12T11:18:25.852Z,18.56
2023-05-12T11:22:27.437Z,18.50
2023-05-12T11:26:31.792Z,18.42
2023-05-12T11:30:33.843Z,18.64
2023-05-12T11:34:35.450Z,18.74
2023-05-12T11:38:37.169Z,18.82
2023-05-12T11:42:41.271Z,18.94
2023-05-12T11:46:54.332Z,19.06
2023-05-12T11:50:55.908Z,18.94
2023-05-12T11:55:00.813Z,18.64
2023-05-12T11:59:02.755Z,18.44
2023-05-12T12:03:14.771Z,18.21
2023-05-12T12:07:17.115Z,18.07
2023-05-12T12:11:19.710Z,17.92
2023-05-12T12:15:21.520Z,17.77
2023-05-12T12:19:23.243Z,17.63
2023-05-12T12:23:24.931Z,17.54
2023-05-12T12:27:26.664Z,17.35
2023-05-12T12:31:28.455Z,17.20
2023-05-12T12:35:30.020Z,17.07
2023-05-12T12:39:31.580Z,17.17
2023-05-12T12:43:33.445Z,17.21
2023-05-12T12:47:35.068Z,17.33
2023-05-12T12:51:45.719Z,17.30
2023-05-12T12:55:48.679Z,17.14
2023-05-12T12:59:50.329Z,17.02
2023-05-12T13:03:51.814Z,16.84
2023-05-12T13:07:53.533Z,16.72
2023-05-12T13:11:55.086Z,16.78
2023-05-12T13:15:56.671Z,16.75
2023-05-12T13:19:59.028Z,16.78
2023-05-12T13:24:00.907Z,16.82
2023-05-12T13:28:02.821Z,16.98
2023-05-12T13:32:04.629Z,17.14
2023-05-12T13:36:06.754Z,17.14
2023-05-12T13:40:09.529Z,17.12
2023-05-12T13:44:11.326Z,17.06
2023-05-12T13:48:12.979Z,17.06
2023-05-12T13:52:15.255Z,17.09
2023-05-12T13:56:16.937Z,17.06
2023-05-12T14:00:18.816Z,17.06
2023-05-12T14:04:20.332Z,17.09
2023-05-12T14:08:22.491Z,17.27
2023-05-12T14:12:24.088Z,17.33
2023-05-12T14:16:25.937Z,17.39
2023-05-12T14:20:27.484Z,17.32
2023-05-12T14:24:30.443Z,17.53
2023-05-12T14:28:32.035Z,17.58
2023-05-12T14:32:34.344Z,17.55
2023-05-12T14:36:35.999Z,17.49
2023-05-12T14:40:39.639Z,17.53
2023-05-12T14:44:41.956Z,17.57
2023-05-12T14:48:44.182Z,17.68
2023-05-12T14:52:45.907Z,17.84
2023-05-12T14:56:47.775Z,18.02
2023-05-12T15:00:51.091Z,18.16
2023-05-12T15:04:52.702Z,18.23
2023-05-12T15:08:54.231Z,18.28
2023-05-12T15:12:55.831Z,18.44
2023-05-12T15:16:57.487Z,18.57
2023-05-12T15:20:59.047Z,18.62
2023-05-12T15:25:01.102Z,18.44
2023-05-12T15:29:02.804Z,18.35
2023-05-12T15:33:04.828Z,18.16
2023-05-12T15:37:06.707Z,18.11
2023-05-12T15:41:08.523Z,18.11
2023-05-12T15:45:10.431Z,18.01
2023-05-12T15:49:12.044Z,17.87
2023-05-12T15:53:13.763Z,17.83
2023-05-12T15:57:15.323Z,17.76
2023-05-12T16:01:16.859Z,17.70
2023-05-12T16:05:18.632Z,17.71
2023-05-12T16:09:20.397Z,17.76
2023-05-12T16:13:21.970Z,17.77
2023-05-12T16:17:23.829Z,17.76
2023-05-12T16:21:25.518Z,17.71
2023-05-12T16:25:27.214Z,17.80
2023-05-12T16:29:31.723Z,17.76
2023-05-12T16:33:33.327Z,17.70
2023-05-12T16:37:34.864Z,17.60
2023-05-12T16:41:36.418Z,17.55
2023-05-12T16:45:38.160Z,17.45
2023-05-12T16:49:40.032Z,17.39
2023-05-12T16:53:42.111Z,17.32
2023-05-12T16:57:43.744Z,17.27
2023-05-12T17:01:46.066Z,17.20
2023-05-12T17:05:47.671Z,17.09
2023-05-12T17:09:53.026Z,17.10
2023-05-12T17:13:55.827Z,17.06
2023-05-12T17:17:58.080Z,16.98
2023-05-12T17:21:59.862Z,16.98
2023-05-12T17:26:02.846Z,16.98
2023-05-12T17:30:04.919Z,16.99
2023-05-12T17:34:06.647Z,17.03
2023-05-12T17:38:08.432Z,17.07
2023-05-12T17:42:10.419Z,17.14
2023-05-12T17:46:12.305Z,17.17
2023-05-12T17:50:15.144Z,17.15
2023-05-12T17:54:16.693Z,17.14
2023-05-12T17:58:18.391Z,17.00
2023-05-12T18:02:20.067Z,16.95
2023-05-12T18:06:22.075Z,16.90
2023-05-12T18:10:23.605Z,16.87
2023-05-12T18:14:25.721Z,16.72
2023-05-12T18:18:27.404Z,16.66
2023-05-12T18:22:29.031Z,16.51
2023-05-12T18:26:30.829Z,16.41
2023-05-12T18:30:33.076Z,16.36
2023-05-12T18:34:34.877Z,16.32
2023-05-12T18:38:36.460Z,16.27
2023-05-12T18:42:38.803Z,16.29
2023-05-12T18:46:40.429Z,16.30
2023-05-12T18:50:42.032Z,16.27
2023-05-12T18:54:46.899Z,16.22
2023-05-12T18:58:50.858Z,16.17
2023-05-12T19:02:52.731Z,16.17
2023-05-12T19:06:54.402Z,16.11
2023-05-12T19:10:56.012Z,16.08
2023-05-12T19:14:57.570Z,16.06
2023-05-12T19:18:59.132Z,16.04
2023-05-12T19:23:01.030Z,15.99
2023-05-12T19:27:02.609Z,15.99
2023-05-12T19:31:04.319Z,15.96
2023-05-12T19:35:06.953Z,15.93
2023-05-12T19:39:08.563Z,15.92
2023-05-12T19:43:10.695Z,15.86
2023-05-12T19:47:12.673Z,15.81
2023-05-12T19:51:14.258Z,15.78
2023-05-12T19:55:16.521Z,15.77
2023-05-12T19:59:18.763Z,15.76
2023-05-12T20:03:20.486Z,15.74
2023-05-12T20:07:22.163Z,15.73
2023-05-12T20:11:23.825Z,15.73
2023-05-12T20:15:25.676Z,15.71
2023-05-12T20:19:27.724Z,15.70
2023-05-12T20:23:29.433Z,15.64
2023-05-12T20:27:32.235Z,15.59
2023-05-12T20:31:34.108Z,15.59
2023-05-12T20:35:35.718Z,15.53
2023-05-12T20:39:37.259Z,15.51
2023-05-12T20:43:40.937Z,15.51
2023-05-12T20:47:42.746Z,15.52
2023-05-12T20:51:44.343Z,15.52
2023-05-12T20:55:45.869Z,15.49
2023-05-12T20:59:48.505Z,15.48
2023-05-12T21:03:50.117Z,15.43
2023-05-12T21:07:51.685Z,15.40
2023-05-12T21:11:53.237Z,15.37
2023-05-12T21:15:54.883Z,15.37
2023-05-12T21:19:56.435Z,15.35
2023-05-12T21:23:58.018Z,15.30
2023-05-12T21:27:59.547Z,15.27
2023-05-12T21:32:01.565Z,15.25
2023-05-12T21:36:03.469Z,15.22
2023-05-12T21:40:05.872Z,15.16
2023-05-12T21:44:09.275Z,15.11
2023-05-12T21:48:12.685Z,15.07
2023-05-12T21:52:15.851Z,15.04
2023-05-12T21:56:17.400Z,15.01
2023-05-12T22:00:20.292Z,15.01
2023-05-12T22:04:22.554Z,15.01
2023-05-12T22:08:24.109Z,15.01
2023-05-12T22:12:25.781Z,14.97
2023-05-12T22:16:40.858Z,14.93
2023-05-12T22:20:43.705Z,14.90
2023-05-12T22:24:45.283Z,14.85
2023-05-12T22:28:46.917Z,14.82
2023-05-12T22:32:48.491Z,14.75
2023-05-12T22:36:50.120Z,14.78
2023-05-12T22:40:51.673Z,14.79
2023-05-12T22:44:53.269Z,14.78
2023-05-12T22:48:54.877Z,14.79
2023-05-12T22:52:57.934Z,14.78
2023-05-12T22:56:59.449Z,14.71
2023-05-12T23:01:01.294Z,14.69
2023-05-12T23:05:04.028Z,14.64
2023-05-12T23:09:05.630Z,14.61
2023-05-12T23:13:07.459Z,14.61
2023-05-12T23:17:09.144Z,14.59
2023-05-12T23:21:10.844Z,14.61
2023-05-12T23:25:12.436Z,14.63
2023-05-12T23:29:13.981Z,14.60
2023-05-12T23:33:15.797Z,14.60
2023-05-12T23:37:19.225Z,14.60
2023-05-12T23:41:22.022Z,14.57
2023-05-12T23:45:23.583Z,14.53
2023-05-12T23:49:26.348Z,14.42
2023-05-12T23:53:27.966Z,14.36
2023-05-12T23:57:29.561Z,14.29
